Погода Хороневона неделю

Смоленская область, Россия

23 - 29 мая
  • 23мая
    Сегодня
    +9°
    +24°
    Ясно и безоблачно
    ВремяПогодаТемператураВлажностьДавлениеВетер, м/сВероятность осадков
    00:00Ясно и безоблачно+14°C95 %749 мм2.7 м/с2 %
    03:00Ясно и безоблачно+13°C95 %749 мм3.0 м/с2 %
    06:00Ясно и безоблачно+13°C90 %750 мм3.9 м/с2 %
    09:00Ясно и безоблачно+18°C69 %751 мм4.6 м/с2 %
    12:00Ясно и безоблачно+22°C53 %752 мм5.6 м/с2 %
    15:00Ясно и безоблачно+23°C43 %752 мм5.9 м/с2 %
    18:00Ясно и безоблачно+22°C42 %752 мм6.2 м/с2 %
    21:00Ясно и безоблачно+17°C51 %753 мм4.8 м/с2 %
  • 24мая
    Пятница
    +8°
    +20°
    Практически безоблачно
    ВремяПогодаТемператураВлажностьДавлениеВетер, м/сВероятность осадков
    00:00Ясно и безоблачно+13°C53 %754 мм5.2 м/с2 %
    03:00Ясно и безоблачно+10°C55 %755 мм4.9 м/с2 %
    06:00Ясно и безоблачно+9°C57 %756 мм4.6 м/с2 %
    09:00Ясно и безоблачно+14°C49 %756 мм4.8 м/с2 %
    12:00Ясно и безоблачно+19°C40 %756 мм5.3 м/с2 %
    15:00Практически безоблачно+20°C35 %756 мм5.2 м/с2 %
    18:00Ясно и безоблачно+19°C37 %756 мм4.7 м/с2 %
    21:00Ясно и безоблачно+15°C54 %755 мм3.5 м/с2 %
  • 25мая
    Суббота
    +8°
    +23°
    Ясно и безоблачно
    ВремяПогодаТемператураВлажностьДавлениеВетер, м/сВероятность осадков
    00:00Ясно и безоблачно+11°C63 %756 мм3.4 м/с2 %
    03:00Ясно и безоблачно+9°C63 %756 мм3.4 м/с2 %
    06:00Ясно и безоблачно+9°C61 %755 мм3.3 м/с2 %
    09:00Ясно и безоблачно+16°C49 %756 мм3.0 м/с2 %
    12:00Ясно и безоблачно+21°C34 %756 мм2.7 м/с2 %
    15:00Ясно и безоблачно+22°C33 %755 мм2.2 м/с2 %
    18:00Ясно и безоблачно+22°C34 %754 мм2.0 м/с2 %
    21:00Ясно и безоблачно+15°C63 %753 мм2.7 м/с2 %
  • 26мая
    Воскресенье
    +11°
    +24°
    Ясно и безоблачно
    ВремяПогодаТемператураВлажностьДавлениеВетер, м/сВероятность осадков
    00:00Небольшая облачность+11°C81 %753 мм2.0 м/с2 %
    03:00Облачно с прояснениями+9°C84 %753 мм2.1 м/с2 %
    06:00Облачно с прояснениями+11°C83 %753 мм1.3 м/с2 %
    09:00Облачно с прояснениями+18°C49 %753 мм0.9 м/с2 %
    12:00Небольшая облачность+22°C37 %753 мм1.4 м/с2 %
    15:00Ясно и безоблачно+23°C37 %752 мм1.5 м/с2 %
    18:00Практически безоблачно+23°C39 %752 мм2.6 м/с2 %
    21:00Практически безоблачно+16°C66 %751 мм2.5 м/с2 %
  • 27мая
    Понедельник
    +12°
    +26°
    Облачно с прояснениями
    ВремяПогодаТемператураВлажностьДавлениеВетер, м/сВероятность осадков
    00:00Ясно и безоблачно+13°C79 %751 мм2.2 м/с2 %
    03:00Ясно и безоблачно+12°C85 %752 мм2.1 м/с2 %
    06:00Практически безоблачно+13°C83 %752 мм2.9 м/с2 %
    09:00Ясно и безоблачно+20°C68 %753 мм3.0 м/с2 %
    12:00Ясно и безоблачно+24°C51 %753 мм3.7 м/с17 %
    15:00Облачно с прояснениями+25°C52 %753 мм3.2 м/с39 %
    18:00Практически безоблачно+23°C57 %753 мм4.1 м/с36 %
    21:00Практически безоблачно+19°C64 %753 мм3.0 м/с2 %
Мы используем cookies
Соглашаюсь